Time,TemperatureF,DewpointF,PressureIn,WindDirection,WindDirectionDegrees,WindSpeedMPH,WindSpeedGustMPH,Humidity,HourlyPrecipIn,Conditions,Clouds,dailyrainin,SoftwareType,DateUTC
2013-03-26 00:02:00,36.0,32.0,29.92,ENE,58,8.0,13.0,84,0.00,,,0.00,,2013-03-26 07:02:00,
2013-03-26 00:11:00,36.0,32.0,29.92,ENE,58,8.0,13.0,84,0.00,,,0.00,,2013-03-26 07:11:00,
2013-03-26 00:22:00,36.0,31.0,29.92,NE,55,10.0,14.0,82,0.00,,,0.00,,2013-03-26 07:22:00,
2013-03-26 00:32:00,36.0,31.0,29.92,ENE,59,8.0,14.0,82,0.00,,,0.00,,2013-03-26 07:32:00,
2013-03-26 00:42:00,36.0,31.0,29.92,ENE,59,8.0,14.0,82,0.00,,,0.00,,2013-03-26 07:42:00,
2013-03-26 00:52:00,36.0,31.0,29.92,NNE,26,5.0,12.0,82,0.00,,,0.00,,2013-03-26 07:52:00,
2013-03-26 01:02:00,36.0,31.0,29.92,NE,38,3.0,10.0,82,0.00,,,0.00,,2013-03-26 08:02:00,
2013-03-26 01:12:00,36.0,31.0,29.92,NE,38,3.0,10.0,82,0.00,,,0.00,,2013-03-26 08:12:00,
2013-03-26 01:22:00,36.0,31.0,29.92,NE,36,2.0,8.0,82,0.00,,,0.00,,2013-03-26 08:22:00,
2013-03-26 01:32:00,36.0,31.0,29.92,NNE,32,5.0,8.0,82,0.00,,,0.00,,2013-03-26 08:32:00,
2013-03-26 01:42:00,36.0,31.0,29.92,NNE,32,5.0,8.0,82,0.00,,,0.00,,2013-03-26 08:42:00,
2013-03-26 01:51:00,36.0,32.0,29.92,NE,49,5.0,7.0,84,0.00,,,0.00,,2013-03-26 08:51:00,
2013-03-26 02:01:00,35.0,31.0,29.92,NE,40,3.0,8.0,85,0.00,,,0.00,,2013-03-26 09:01:00,
2013-03-26 02:12:00,35.0,31.0,29.92,NE,40,3.0,8.0,85,0.00,,,0.00,,2013-03-26 09:12:00,
2013-03-26 02:22:00,35.0,32.0,29.92,NE,38,4.0,8.0,87,0.00,,,0.00,,2013-03-26 09:22:00,
2013-03-26 02:32:00,34.0,31.0,29.92,NE,35,3.0,7.0,88,0.00,,,0.00,,2013-03-26 09:32:00,
2013-03-26 02:42:00,34.0,31.0,29.92,NE,35,3.0,7.0,88,0.00,,,0.00,,2013-03-26 09:42:00,
2013-03-26 02:52:00,34.0,31.0,29.91,NNE,32,3.0,7.0,90,0.00,,,0.00,,2013-03-26 09:52:00,
2013-03-26 03:02:00,34.0,32.0,29.91,North,9,2.0,6.0,91,0.00,,,0.00,,2013-03-26 10:02:00,
2013-03-26 03:12:00,34.0,32.0,29.91,North,9,2.0,6.0,91,0.00,,,0.00,,2013-03-26 10:12:00,
2013-03-26 03:22:00,33.0,31.0,29.91,NNE,26,3.0,6.0,92,0.00,,,0.00,,2013-03-26 10:22:00,
2013-03-26 03:32:00,33.0,31.0,29.91,ENE,61,4.0,9.0,93,0.00,,,0.00,,2013-03-26 10:32:00,
2013-03-26 03:42:00,33.0,31.0,29.91,ENE,61,4.0,9.0,93,0.00,,,0.00,,2013-03-26 10:42:00,
2013-03-26 03:52:00,33.0,31.0,29.91,NNE,30,5.0,7.0,93,0.00,,,0.00,,2013-03-26 10:52:00,
2013-03-26 04:02:00,33.0,31.0,29.91,NNE,22,4.0,7.0,93,0.00,,,0.00,,2013-03-26 11:02:00,
2013-03-26 04:12:00,33.0,31.0,29.91,NNE,22,4.0,7.0,93,0.00,,,0.00,,2013-03-26 11:12:00,
2013-03-26 04:21:00,34.0,32.0,29.91,NNE,19,5.0,7.0,93,0.00,,,0.00,,2013-03-26 11:21:00,
2013-03-26 04:32:00,34.0,32.0,29.91,NE,36,5.0,9.0,93,0.00,,,0.00,,2013-03-26 11:32:00,
2013-03-26 04:42:00,34.0,32.0,29.91,NE,36,5.0,9.0,93,0.00,,,0.00,,2013-03-26 11:42:00,
2013-03-26 04:52:00,34.0,32.0,29.91,ENE,62,5.0,8.0,93,0.00,,,0.00,,2013-03-26 11:52:00,
2013-03-26 05:02:00,34.0,32.0,29.91,ENE,62,5.0,8.0,93,0.00,,,0.00,,2013-03-26 12:02:00,
2013-03-26 05:12:00,34.0,32.0,29.91,NE,49,4.0,8.0,93,0.00,,,0.00,,2013-03-26 12:12:00,
2013-03-26 05:21:00,33.0,31.0,29.91,NE,43,3.0,6.0,93,0.00,,,0.00,,2013-03-26 12:21:00,
2013-03-26 05:31:00,33.0,31.0,29.90,NE,46,3.0,7.0,93,0.00,,,0.00,,2013-03-26 12:31:00,
2013-03-26 05:42:00,33.0,31.0,29.90,NE,46,3.0,7.0,93,0.00,,,0.00,,2013-03-26 12:42:00,
2013-03-26 05:52:00,33.0,31.0,29.90,NE,37,3.0,6.0,93,0.00,,,0.00,,2013-03-26 12:52:00,
2013-03-26 06:02:00,33.0,31.0,29.91,NNE,33,3.0,7.0,93,0.00,,,0.00,,2013-03-26 13:02:00,
2013-03-26 06:11:00,33.0,31.0,29.91,NNE,33,3.0,7.0,93,0.00,,,0.00,,2013-03-26 13:11:00,
2013-03-26 06:22:00,33.0,31.0,29.91,NE,46,2.0,5.0,93,0.00,,,0.00,,2013-03-26 13:22:00,
2013-03-26 06:32:00,33.0,31.0,29.91,NE,50,3.0,6.0,94,0.00,,,0.00,,2013-03-26 13:32:00,
2013-03-26 06:42:00,33.0,31.0,29.91,NE,50,3.0,6.0,94,0.00,,,0.00,,2013-03-26 13:42:00,
2013-03-26 06:52:00,33.0,31.0,29.91,NNE,28,2.0,5.0,94,0.00,,,0.00,,2013-03-26 13:52:00,
2013-03-26 07:02:00,33.0,31.0,29.91,NNE,28,1.0,3.0,94,0.00,,,0.00,,2013-03-26 14:02:00,
2013-03-26 07:11:00,33.0,31.0,29.91,NNE,28,1.0,3.0,94,0.00,,,0.00,,2013-03-26 14:11:00,
2013-03-26 07:22:00,33.0,31.0,29.91,NNE,28,1.0,3.0,94,0.00,,,0.00,,2013-03-26 14:22:00,
2013-03-26 07:32:00,32.0,30.0,29.91,NNE,28,2.0,4.0,94,0.00,,,0.00,,2013-03-26 14:32:00,
2013-03-26 07:42:00,32.0,30.0,29.91,NNE,28,2.0,4.0,94,0.00,,,0.00,,2013-03-26 14:42:00,
2013-03-26 07:52:00,32.0,30.0,29.92,NNE,28,1.0,4.0,94,0.00,,,0.00,,2013-03-26 14:52:00,
2013-03-26 08:02:00,33.0,32.0,29.92,NNE,22,1.0,4.0,95,0.00,,,0.00,,2013-03-26 15:02:00,
2013-03-26 08:12:00,33.0,32.0,29.92,NNE,22,1.0,4.0,95,0.00,,,0.00,,2013-03-26 15:12:00,
2013-03-26 08:21:00,33.0,32.0,29.92,NNE,22,1.0,4.0,95,0.00,,,0.00,,2013-03-26 15:21:00,
2013-03-26 08:33:00,34.0,32.0,29.92,NE,44,1.0,3.0,94,0.00,,,0.00,,2013-03-26 15:33:00,
2013-03-26 08:42:00,34.0,32.0,29.92,NE,44,1.0,3.0,94,0.00,,,0.00,,2013-03-26 15:42:00,
2013-03-26 08:52:00,34.0,32.0,29.92,NE,44,0.0,1.0,93,0.00,,,0.00,,2013-03-26 15:52:00,
2013-03-26 09:02:00,34.0,32.0,29.93,NE,44,0.0,3.0,93,0.00,,,0.00,,2013-03-26 16:02:00,
2013-03-26 09:12:00,34.0,32.0,29.93,NE,44,0.0,3.0,93,0.00,,,0.00,,2013-03-26 16:12:00,
2013-03-26 09:22:00,35.0,33.0,29.93,NE,44,1.0,3.0,92,0.00,,,0.00,,2013-03-26 16:22:00,
2013-03-26 09:32:00,36.0,34.0,29.93,NE,46,2.0,5.0,91,0.00,,,0.00,,2013-03-26 16:32:00,
2013-03-26 09:42:00,36.0,34.0,29.93,NE,46,2.0,5.0,91,0.00,,,0.00,,2013-03-26 16:42:00,
2013-03-26 09:53:00,37.0,34.0,29.93,NE,40,1.0,4.0,90,0.00,,,0.00,,2013-03-26 16:53:00,
2013-03-26 10:02:00,39.0,36.0,29.93,NE,42,1.0,4.0,90,0.00,,,0.00,,2013-03-26 17:02:00,
2013-03-26 10:12:00,39.0,36.0,29.93,NE,42,1.0,4.0,90,0.00,,,0.00,,2013-03-26 17:12:00,
2013-03-26 10:22:00,39.0,37.0,29.93,NE,50,4.0,7.0,92,0.00,,,0.00,,2013-03-26 17:22:00,
2013-03-26 10:32:00,41.0,36.0,29.92,NNE,14,4.0,8.0,82,0.00,,,0.00,,2013-03-26 17:32:00,
2013-03-26 10:42:00,41.0,36.0,29.92,NNE,14,4.0,8.0,82,0.00,,,0.00,,2013-03-26 17:42:00,
2013-03-26 10:52:00,42.0,36.0,29.92,NNE,23,4.0,7.0,79,0.00,,,0.00,,2013-03-26 17:52:00,
2013-03-26 11:02:00,43.0,36.0,29.92,NE,34,6.0,10.0,77,0.00,,,0.00,,2013-03-26 18:02:00,
2013-03-26 11:12:00,43.0,36.0,29.92,NE,34,6.0,10.0,77,0.00,,,0.00,,2013-03-26 18:12:00,
2013-03-26 11:22:00,44.0,36.0,29.92,NNE,17,4.0,9.0,72,0.00,,,0.00,,2013-03-26 18:22:00,
2013-03-26 11:33:00,45.0,36.0,29.92,NE,54,5.0,12.0,70,0.00,,,0.00,,2013-03-26 18:33:00,
2013-03-26 11:42:00,45.0,36.0,29.92,NE,54,5.0,12.0,70,0.00,,,0.00,,2013-03-26 18:42:00,
2013-03-26 11:52:00,46.0,36.0,29.91,ENE,78,4.0,11.0,69,0.00,,,0.00,,2013-03-26 18:52:00,
2013-03-26 12:02:00,47.0,36.0,29.91,NE,55,2.0,12.0,66,0.00,,,0.00,,2013-03-26 19:02:00,
2013-03-26 12:11:00,47.0,36.0,29.91,NE,55,2.0,12.0,66,0.00,,,0.00,,2013-03-26 19:11:00,
2013-03-26 12:22:00,48.0,37.0,29.91,NNE,26,5.0,12.0,65,0.00,,,0.00,,2013-03-26 19:22:00,
2013-03-26 12:32:00,50.0,37.0,29.90,ENE,57,6.0,13.0,61,0.00,,,0.00,,2013-03-26 19:32:00,
2013-03-26 12:42:00,50.0,37.0,29.90,ENE,57,6.0,13.0,61,0.00,,,0.00,,2013-03-26 19:42:00,
2013-03-26 12:52:00,50.0,37.0,29.90,ENE,67,5.0,11.0,60,0.00,,,0.00,,2013-03-26 19:52:00,
2013-03-26 13:02:00,50.0,36.0,29.90,NNE,23,5.0,13.0,59,0.00,,,0.00,,2013-03-26 20:02:00,
2013-03-26 13:12:00,50.0,36.0,29.90,NNE,23,5.0,13.0,59,0.00,,,0.00,,2013-03-26 20:12:00,
2013-03-26 13:22:00,49.0,36.0,29.89,NE,50,6.0,11.0,61,0.00,,,0.00,,2013-03-26 20:22:00,
2013-03-26 13:32:00,49.0,37.0,29.89,NNE,32,2.0,10.0,62,0.00,,,0.00,,2013-03-26 20:32:00,
2013-03-26 13:52:00,48.0,36.0,29.89,NE,53,6.0,12.0,64,0.00,,,0.00,,2013-03-26 20:52:00,
2013-03-26 14:02:00,48.0,36.0,29.89,ENE,69,8.0,13.0,64,0.00,,,0.00,,2013-03-26 21:02:00,
2013-03-26 14:12:00,48.0,36.0,29.89,ENE,69,8.0,13.0,64,0.00,,,0.00,,2013-03-26 21:12:00,
2013-03-26 14:22:00,48.0,36.0,29.89,ENE,69,8.0,13.0,64,0.00,,,0.00,,2013-03-26 21:22:00,
2013-03-26 14:32:00,48.0,36.0,29.89,ENE,69,8.0,13.0,64,0.00,,,0.00,,2013-03-26 21:32:00,
2013-03-26 14:42:00,48.0,36.0,29.89,ENE,69,8.0,13.0,64,0.00,,,0.00,,2013-03-26 21:42:00,
2013-03-26 15:22:00,47.0,37.0,29.89,NE,43,5.0,9.0,67,0.00,,,0.00,,2013-03-26 22:22:00,
2013-03-26 15:32:00,47.0,37.0,29.89,NE,43,5.0,9.0,67,0.00,,,0.00,,2013-03-26 22:32:00,
2013-03-26 15:42:00,47.0,37.0,29.89,NE,43,5.0,9.0,67,0.00,,,0.00,,2013-03-26 22:42:00,
2013-03-26 15:51:00,47.0,37.0,29.89,NE,43,5.0,9.0,67,0.00,,,0.00,,2013-03-26 22:51:00,
2013-03-26 16:22:00,45.0,37.0,29.89,North,9,5.0,11.0,72,0.00,,,0.00,,2013-03-26 23:22:00,
2013-03-26 16:31:00,45.0,37.0,29.89,ENE,63,7.0,11.0,73,0.00,,,0.00,,2013-03-26 23:31:00,
2013-03-26 16:42:00,45.0,37.0,29.89,ENE,63,7.0,11.0,73,0.00,,,0.00,,2013-03-26 23:42:00,
2013-03-26 16:51:00,44.0,36.0,29.89,NE,46,6.0,10.0,74,0.00,,,0.00,,2013-03-26 23:51:00,
2013-03-26 17:02:00,45.0,37.0,29.89,NE,46,8.0,11.0,74,0.00,,,0.00,,2013-03-27 00:02:00,
2013-03-26 17:12:00,45.0,37.0,29.89,NE,46,8.0,11.0,74,0.00,,,0.00,,2013-03-27 00:12:00,
2013-03-26 17:22:00,45.0,37.0,29.88,NNE,19,7.0,11.0,73,0.00,,,0.00,,2013-03-27 00:22:00,
2013-03-26 17:32:00,46.0,37.0,29.88,NNE,26,8.0,12.0,72,0.00,,,0.00,,2013-03-27 00:32:00,
2013-03-26 17:42:00,46.0,37.0,29.88,NNE,26,8.0,12.0,72,0.00,,,0.00,,2013-03-27 00:42:00,
2013-03-26 17:52:00,45.0,37.0,29.88,NE,49,7.0,14.0,72,0.00,,,0.00,,2013-03-27 00:52:00,
2013-03-26 18:02:00,44.0,36.0,29.88,NNE,32,6.0,12.0,74,0.00,,,0.00,,2013-03-27 01:02:00,
2013-03-26 18:11:00,44.0,36.0,29.88,NNE,32,6.0,12.0,74,0.00,,,0.00,,2013-03-27 01:11:00,
2013-03-26 18:22:00,44.0,37.0,29.88,NNE,32,5.0,10.0,76,0.00,,,0.00,,2013-03-27 01:22:00,
2013-03-26 18:42:00,44.0,37.0,29.89,NE,38,5.0,11.0,76,0.00,,,0.00,,2013-03-27 01:42:00,
2013-03-26 18:52:00,44.0,37.0,29.89,NE,38,4.0,9.0,76,0.00,,,0.00,,2013-03-27 01:52:00,
2013-03-26 19:02:00,43.0,36.0,29.89,NE,45,3.0,9.0,77,0.00,,,0.00,,2013-03-27 02:02:00,
2013-03-26 19:12:00,43.0,36.0,29.89,NE,45,3.0,9.0,77,0.00,,,0.00,,2013-03-27 02:12:00,
2013-03-26 19:22:00,43.0,36.0,29.89,NE,36,5.0,8.0,77,0.00,,,0.00,,2013-03-27 02:22:00,
2013-03-26 19:32:00,43.0,37.0,29.90,NE,51,3.0,6.0,79,0.00,,,0.00,,2013-03-27 02:32:00,
2013-03-26 19:42:00,43.0,37.0,29.90,NE,51,3.0,6.0,79,0.00,,,0.00,,2013-03-27 02:42:00,
2013-03-26 19:52:00,43.0,37.0,29.90,NE,51,3.0,6.0,79,0.00,,,0.00,,2013-03-27 02:52:00,
2013-03-26 20:02:00,42.0,37.0,29.91,ENE,59,2.0,5.0,81,0.00,,,0.00,,2013-03-27 03:02:00,
2013-03-26 20:11:00,42.0,37.0,29.91,ENE,59,2.0,5.0,81,0.00,,,0.00,,2013-03-27 03:11:00,
2013-03-26 20:22:00,42.0,37.0,29.91,ENE,59,1.0,3.0,83,0.00,,,0.00,,2013-03-27 03:22:00,
2013-03-26 20:32:00,41.0,37.0,29.91,ENE,59,0.0,2.0,85,0.00,,,0.00,,2013-03-27 03:32:00,
2013-03-26 20:42:00,41.0,37.0,29.91,ENE,59,0.0,2.0,85,0.00,,,0.00,,2013-03-27 03:42:00,
2013-03-26 20:52:00,41.0,38.0,29.92,ENE,59,1.0,3.0,88,0.00,,,0.00,,2013-03-27 03:52:00,
2013-03-26 21:02:00,41.0,38.0,29.92,ENE,59,0.0,1.0,88,0.00,,,0.00,,2013-03-27 04:02:00,
2013-03-26 21:12:00,41.0,38.0,29.92,ENE,59,0.0,1.0,88,0.00,,,0.00,,2013-03-27 04:12:00,
2013-03-26 21:22:00,41.0,38.0,29.93,ENE,59,0.0,2.0,88,0.00,,,0.00,,2013-03-27 04:22:00,
2013-03-26 21:32:00,40.0,37.0,29.93,ENE,59,0.0,0.0,90,0.00,,,0.00,,2013-03-27 04:32:00,
2013-03-26 21:42:00,40.0,37.0,29.93,ENE,59,0.0,0.0,90,0.00,,,0.00,,2013-03-27 04:42:00,
2013-03-26 21:52:00,40.0,38.0,29.93,ENE,59,0.0,2.0,91,0.00,,,0.00,,2013-03-27 04:52:00,
2013-03-26 22:02:00,40.0,38.0,29.93,ENE,59,0.0,2.0,91,0.00,,,0.00,,2013-03-27 05:02:00,
2013-03-26 22:12:00,40.0,38.0,29.93,ENE,59,0.0,2.0,91,0.00,,,0.00,,2013-03-27 05:12:00,
2013-03-26 22:22:00,40.0,38.0,29.93,ENE,59,0.0,0.0,92,0.00,,,0.00,,2013-03-27 05:22:00,
2013-03-26 22:32:00,39.0,37.0,29.93,ENE,59,0.0,1.0,92,0.00,,,0.00,,2013-03-27 05:32:00,
2013-03-26 22:42:00,39.0,37.0,29.93,ENE,59,0.0,1.0,92,0.00,,,0.00,,2013-03-27 05:42:00,
2013-03-26 22:52:00,38.0,36.0,29.93,ENE,59,0.0,2.0,93,0.00,,,0.00,,2013-03-27 05:52:00,
2013-03-26 23:02:00,38.0,36.0,29.93,ENE,59,0.0,1.0,93,0.00,,,0.00,,2013-03-27 06:02:00,
2013-03-26 23:11:00,38.0,36.0,29.93,ENE,59,0.0,1.0,93,0.00,,,0.00,,2013-03-27 06:11:00,
2013-03-26 23:22:00,36.0,34.0,29.93,ENE,59,0.0,0.0,94,0.00,,,0.00,,2013-03-27 06:22:00,
2013-03-26 23:32:00,35.0,33.0,29.93,ENE,59,0.0,0.0,94,0.00,,,0.00,,2013-03-27 06:32:00,
2013-03-26 23:42:00,35.0,33.0,29.93,ENE,59,0.0,0.0,94,0.00,,,0.00,,2013-03-27 06:42:00,
2013-03-26 23:52:00,35.0,33.0,29.93,ENE,59,0.0,0.0,94,0.00,,,0.00,,2013-03-27 06:52:00,